Butler, Indiana
Current Conditions -  °F | °C
As of 8:35 PM on Sunday 23 Nov 2014 (Local Time) from KGWB Reporting Station
Moderate Rain Moderate Rain  
Wind Chill: 50°   Ceiling: 1400
Heat Index: 50°   Visibility: 5mi
Dew Point: 46°   Wind: 7mph
Humidity: 87%   Direction: 110°ESE
Pressure: 29.38"   Gusts: NA
Location:  41.43°N, 84.87°W
Report Text: KGWB 240135Z AUTO 11006KT 5SM RA SCT009 BKN014 OVC019 10/08 A2938 RMK AO2 P0015
Loading
Personal Weather Stations






























Interactive Weather Map New forecast layout! Learn more

10-Day Weather Forecast

Advertisements
Track Severe Weather on mobile